createdAt,value
2019-04-25T00:01:03.424Z,96437.66
2019-04-25T00:03:36.799Z,96432.97
2019-04-25T00:06:09.748Z,96417.08
2019-04-25T00:08:43.065Z,96414.08
2019-04-25T00:11:14.724Z,96408.09
2019-04-25T00:13:46.036Z,96415.34
2019-04-25T00:16:19.150Z,96417.50
2019-04-25T00:18:51.706Z,96426.05
2019-04-25T00:21:31.790Z,96425.00
2019-04-25T00:24:08.629Z,96420.27
2019-04-25T00:26:45.165Z,96427.17
2019-04-25T00:29:17.745Z,96430.94
2019-04-25T00:31:49.329Z,96430.38
2019-04-25T00:34:21.850Z,96420.03
2019-04-25T00:36:53.323Z,96425.97
2019-04-25T00:39:26.180Z,96432.00
2019-04-25T00:41:58.023Z,96426.86
2019-04-25T00:44:29.388Z,96444.75
2019-04-25T00:47:02.268Z,96439.65
2019-04-25T00:49:34.093Z,96449.44
2019-04-25T00:52:05.439Z,96459.25
2019-04-25T00:54:36.741Z,96460.44
2019-04-25T00:57:08.128Z,96454.12
2019-04-25T00:59:45.689Z,96463.20
2019-04-25T01:02:27.905Z,96461.11
2019-04-25T01:04:59.341Z,96466.73
2019-04-25T01:07:32.438Z,96466.67
2019-04-25T01:10:05.266Z,96467.08
2019-04-25T01:12:36.864Z,96473.02
2019-04-25T01:15:11.598Z,96469.52
2019-04-25T01:17:45.297Z,96468.23
2019-04-25T01:20:17.911Z,96469.38
2019-04-25T01:22:49.351Z,96473.08
2019-04-25T01:25:23.377Z,96466.53
2019-04-25T01:27:55.005Z,96464.21
2019-04-25T01:30:27.977Z,96464.06
2019-04-25T01:32:59.427Z,96473.56
2019-04-25T01:35:36.758Z,96467.17
2019-04-25T01:38:18.208Z,96462.93
2019-04-25T01:40:57.375Z,96453.70
2019-04-25T01:44:00.074Z,96457.83
2019-04-25T01:46:32.308Z,96461.53
2019-04-25T01:49:04.355Z,96466.25
2019-04-25T01:51:36.312Z,96461.27
2019-04-25T01:54:07.680Z,96458.32
2019-04-25T01:56:39.334Z,96464.70
2019-04-25T01:59:11.265Z,96473.27
2019-04-25T02:01:44.036Z,96470.17
2019-04-25T02:04:15.623Z,96461.98
2019-04-25T02:06:47.035Z,96465.00
2019-04-25T02:09:20.293Z,96457.00
2019-04-25T02:12:04.807Z,96457.91
2019-04-25T02:14:36.326Z,96459.60
2019-04-25T02:17:07.731Z,96463.38
2019-04-25T02:19:39.204Z,96461.68
2019-04-25T02:22:10.924Z,96462.97
2019-04-25T02:24:55.843Z,96468.17
2019-04-25T02:27:28.451Z,96472.98
2019-04-25T02:30:01.030Z,96477.67
2019-04-25T02:32:34.464Z,96478.50
2019-04-25T02:35:09.359Z,96466.95
2019-04-25T02:37:40.755Z,96480.20
2019-04-25T02:40:14.141Z,96477.53
2019-04-25T02:42:45.764Z,96480.84
2019-04-25T02:45:48.273Z,96477.49
2019-04-25T02:48:38.916Z,96475.83
2019-04-25T02:51:26.670Z,96475.04
2019-04-25T02:53:59.502Z,96479.09
2019-04-25T02:56:37.596Z,96476.97
2019-04-25T02:59:08.450Z,96488.88
2019-04-25T03:01:38.874Z,96487.95
2019-04-25T03:04:11.355Z,96477.61
2019-04-25T03:06:45.246Z,96488.21
2019-04-25T03:09:16.856Z,96483.45
2019-04-25T03:11:48.614Z,96491.86
2019-04-25T03:14:19.938Z,96492.55
2019-04-25T03:16:54.339Z,96496.34
2019-04-25T03:19:34.223Z,96509.17
2019-04-25T03:22:11.063Z,96507.12
2019-04-25T03:24:40.180Z,96501.67
2019-04-25T03:27:12.034Z,96492.73
2019-04-25T03:29:55.163Z,96490.62
2019-04-25T03:32:28.455Z,96490.95
2019-04-25T03:35:00.511Z,96495.63
2019-04-25T03:37:33.068Z,96498.91
2019-04-25T03:40:06.621Z,96511.45
2019-04-25T03:42:39.618Z,96509.78
2019-04-25T03:45:13.761Z,96510.66
2019-04-25T03:47:45.759Z,96504.86
2019-04-25T03:50:17.344Z,96508.36
2019-04-25T03:52:48.760Z,96505.54
2019-04-25T03:55:20.297Z,96501.89
2019-04-25T03:57:51.627Z,96503.19
2019-04-25T04:00:24.120Z,96498.55
2019-04-25T04:02:55.546Z,96498.55
2019-04-25T04:05:27.297Z,96501.02
2019-04-25T04:07:58.980Z,96495.84
2019-04-25T04:10:30.191Z,96497.54
2019-04-25T04:13:01.582Z,96492.45
2019-04-25T04:15:33.591Z,96507.16
2019-04-25T04:18:17.257Z,96501.62
2019-04-25T04:21:16.185Z,96505.51
2019-04-25T04:24:04.371Z,96503.31
2019-04-25T04:26:35.846Z,96500.20
2019-04-25T04:29:07.816Z,96505.23
2019-04-25T04:31:39.345Z,96512.97
2019-04-25T04:34:10.678Z,96511.83
2019-04-25T04:36:43.689Z,96511.88
2019-04-25T04:39:16.810Z,96520.91
2019-04-25T04:41:48.035Z,96526.16
2019-04-25T04:44:19.350Z,96519.30
2019-04-25T04:46:50.718Z,96522.73
2019-04-25T04:49:23.504Z,96514.70
2019-04-25T04:51:56.685Z,96509.95
2019-04-25T04:54:28.012Z,96505.84
2019-04-25T04:56:59.448Z,96510.32
2019-04-25T04:59:31.061Z,96514.10
2019-04-25T05:02:24.750Z,96520.14
2019-04-25T05:05:24.811Z,96528.40
2019-04-25T05:08:18.767Z,96525.03
2019-04-25T05:10:50.251Z,96524.31
2019-04-25T05:13:22.063Z,96518.75
2019-04-25T05:15:53.403Z,96523.96
2019-04-25T05:18:34.625Z,96529.59
2019-04-25T05:20:57.990Z,96535.73
2019-04-25T05:23:29.194Z,96525.11
2019-04-25T05:26:00.606Z,96524.70
2019-04-25T05:28:33.306Z,96531.60
2019-04-25T05:31:19.294Z,96526.96
2019-04-25T05:33:50.807Z,96525.69
2019-04-25T05:36:23.864Z,96529.52
2019-04-25T05:38:55.563Z,96532.48
2019-04-25T05:41:38.925Z,96529.45
2019-04-25T05:44:10.265Z,96523.75
2019-04-25T05:46:41.643Z,96530.89
2019-04-25T05:49:13.858Z,96531.59
2019-04-25T05:51:45.276Z,96535.23
2019-04-25T05:54:16.589Z,96538.50
2019-04-25T05:56:47.807Z,96537.77
2019-04-25T05:59:19.523Z,96535.43
2019-04-25T06:01:50.894Z,96533.61
2019-04-25T06:04:24.643Z,96532.25
2019-04-25T06:06:55.713Z,96528.67
2019-04-25T06:09:48.833Z,96536.84
2019-04-25T06:12:28.034Z,96536.05
2019-04-25T06:14:59.419Z,96535.94
2019-04-25T06:17:38.881Z,96530.45
2019-04-25T06:20:13.448Z,96531.09
2019-04-25T06:22:58.636Z,96524.39
2019-04-25T06:25:36.318Z,96524.31
2019-04-25T06:28:05.836Z,96516.92
2019-04-25T06:30:37.361Z,96512.81
2019-04-25T06:33:09.180Z,96507.34
2019-04-25T06:35:40.613Z,96510.94
2019-04-25T06:38:13.361Z,96515.41
2019-04-25T06:40:44.888Z,96518.78
2019-04-25T06:43:16.389Z,96516.11
2019-04-25T06:45:55.703Z,96522.77
2019-04-25T06:48:45.970Z,96515.48
2019-04-25T06:51:17.335Z,96511.98
2019-04-25T06:53:48.693Z,96513.66
2019-04-25T06:56:20.054Z,96511.36
2019-04-25T06:58:51.340Z,96496.69
2019-04-25T07:01:25.113Z,96491.97
2019-04-25T07:03:55.882Z,96498.84
2019-04-25T07:06:27.294Z,96490.03
2019-04-25T07:08:58.655Z,96495.97
2019-04-25T07:11:30.511Z,96492.27
2019-04-25T07:14:01.723Z,96488.10
2019-04-25T07:16:34.423Z,96480.05
2019-04-25T07:19:06.653Z,96478.05
2019-04-25T07:21:38.052Z,96484.25
2019-04-25T07:24:09.474Z,96480.84
2019-04-25T07:27:03.801Z,96490.50
2019-04-25T07:29:51.827Z,96480.67
2019-04-25T07:32:35.774Z,96470.23
2019-04-25T07:35:07.817Z,96471.94
2019-04-25T07:37:41.474Z,96482.13
2019-04-25T07:40:13.901Z,96481.84
2019-04-25T07:42:45.463Z,96474.55
2019-04-25T07:45:18.799Z,96481.35
2019-04-25T07:47:50.234Z,96489.00
2019-04-25T07:50:21.883Z,96469.74
2019-04-25T07:52:53.842Z,96462.05
2019-04-25T07:55:25.506Z,96472.89
2019-04-25T07:57:56.881Z,96473.01
2019-04-25T08:00:29.656Z,96465.01
2019-04-25T08:03:01.074Z,96463.06
2019-04-25T08:05:35.310Z,96454.78
2019-04-25T08:08:05.687Z,96460.59
2019-04-25T08:10:59.576Z,96466.20
2019-04-25T08:13:39.866Z,96460.64
2019-04-25T08:16:14.575Z,96457.64
2019-04-25T08:18:47.924Z,96457.27
2019-04-25T08:21:19.622Z,96453.89
2019-04-25T08:23:53.325Z,96449.48
2019-04-25T08:26:25.750Z,96441.34
2019-04-25T08:28:57.879Z,96440.66
2019-04-25T08:31:30.367Z,96448.55
2019-04-25T08:34:03.612Z,96450.69
2019-04-25T08:36:37.094Z,96441.78
2019-04-25T08:39:11.297Z,96447.97
2019-04-25T08:41:45.358Z,96443.22
2019-04-25T08:44:16.090Z,96438.80
2019-04-25T08:46:48.800Z,96433.91
2019-04-25T08:49:38.399Z,96445.90
2019-04-25T08:52:10.436Z,96442.50
2019-04-25T08:55:00.929Z,96432.62
2019-04-25T08:57:51.765Z,96431.26
2019-04-25T09:00:36.151Z,96427.19
2019-04-25T09:03:11.407Z,96430.27
2019-04-25T09:05:46.243Z,96430.32
2019-04-25T09:08:18.168Z,96420.25
2019-04-25T09:10:49.520Z,96415.92
2019-04-25T09:13:21.039Z,96416.25
2019-04-25T09:15:54.017Z,96418.27
2019-04-25T09:18:25.917Z,96422.02
2019-04-25T09:20:57.283Z,96413.71
2019-04-25T09:23:29.736Z,96415.53
2019-04-25T09:26:01.207Z,96407.02
2019-04-25T09:28:35.053Z,96418.30
2019-04-25T09:31:05.996Z,96407.20
2019-04-25T09:33:37.626Z,96411.67
2019-04-25T09:36:09.706Z,96410.08
2019-04-25T09:38:41.157Z,96407.09
2019-04-25T09:41:13.980Z,96399.23
2019-04-25T09:43:46.884Z,96395.88
2019-04-25T09:46:31.357Z,96403.84
2019-04-25T09:49:08.607Z,96388.63
2019-04-25T09:51:44.616Z,96370.56
2019-04-25T09:54:34.021Z,96372.50
2019-04-25T09:57:34.143Z,96375.24
2019-04-25T10:00:09.777Z,96371.02
2019-04-25T10:02:41.224Z,96372.34
2019-04-25T10:05:13.964Z,96376.20
2019-04-25T10:07:46.314Z,96366.52
2019-04-25T10:10:18.832Z,96375.94
2019-04-25T10:12:50.966Z,96369.75
2019-04-25T10:15:59.599Z,96362.27
2019-04-25T10:18:33.465Z,96371.17
2019-04-25T10:21:08.490Z,96365.45
2019-04-25T10:23:42.134Z,96366.91
2019-04-25T10:26:14.447Z,96371.86
2019-04-25T10:28:45.874Z,96362.53
2019-04-25T10:31:17.148Z,96363.28
2019-04-25T10:33:48.701Z,96355.07
2019-04-25T10:36:20.891Z,96356.47
2019-04-25T10:39:04.281Z,96351.39
2019-04-25T10:41:25.442Z,96337.00
2019-04-25T10:43:57.067Z,96337.41
2019-04-25T10:46:28.612Z,96339.80
2019-04-25T10:49:00.052Z,96338.84
2019-04-25T10:51:31.577Z,96340.78
2019-04-25T10:54:04.182Z,96335.63
2019-04-25T10:56:35.810Z,96327.33
2019-04-25T10:59:07.257Z,96329.30
2019-04-25T11:01:38.710Z,96314.53
2019-04-25T11:04:29.014Z,96308.83
2019-04-25T11:07:00.762Z,96311.67
2019-04-25T11:09:33.775Z,96314.98
2019-04-25T11:12:08.741Z,96312.69
2019-04-25T11:14:40.919Z,96312.28
2019-04-25T11:17:13.192Z,96306.98
2019-04-25T11:19:45.475Z,96298.80
2019-04-25T11:22:16.989Z,96303.01
2019-04-25T11:24:48.662Z,96299.91
2019-04-25T11:27:20.574Z,96299.81
2019-04-25T11:29:53.548Z,96296.69
2019-04-25T11:32:28.373Z,96296.63
2019-04-25T11:34:59.958Z,96297.44
2019-04-25T11:37:34.296Z,96288.72
2019-04-25T11:40:19.502Z,96285.84
2019-04-25T11:42:51.217Z,96280.11
2019-04-25T11:45:23.669Z,96280.26
2019-04-25T11:47:56.164Z,96279.52
2019-04-25T11:50:28.473Z,96270.69
2019-04-25T11:53:00.919Z,96273.56
2019-04-25T11:55:32.961Z,96267.13
2019-04-25T11:58:04.516Z,96267.97
2019-04-25T12:00:36.787Z,96262.83
2019-04-25T12:03:08.210Z,96273.81
2019-04-25T12:05:39.720Z,96262.14
2019-04-25T12:08:13.469Z,96264.22
2019-04-25T12:10:45.781Z,96254.01
2019-04-25T12:13:20.427Z,96256.73
2019-04-25T12:15:51.932Z,96256.47
2019-04-25T12:18:23.650Z,96256.87
2019-04-25T12:20:57.973Z,96252.56
2019-04-25T12:23:30.174Z,96247.36
2019-04-25T12:26:01.521Z,96248.66
2019-04-25T12:28:33.889Z,96239.19
2019-04-25T12:31:05.340Z,96234.33
2019-04-25T12:33:37.085Z,96228.86
2019-04-25T12:36:08.526Z,96227.46
2019-04-25T12:38:40.546Z,96226.82
2019-04-25T12:41:11.825Z,96233.27
2019-04-25T12:43:48.346Z,96226.73
2019-04-25T12:46:26.061Z,96214.50
2019-04-25T12:48:57.725Z,96219.28
2019-04-25T12:51:29.154Z,96226.64
2019-04-25T12:54:00.698Z,96218.97
2019-04-25T12:56:32.172Z,96203.45
2019-04-25T12:59:04.592Z,96198.14
2019-04-25T13:01:36.185Z,96196.58
2019-04-25T13:04:07.633Z,96190.05
2019-04-25T13:06:39.059Z,96197.91
2019-04-25T13:09:13.274Z,96192.52
2019-04-25T13:11:44.785Z,96192.48
2019-04-25T13:14:16.293Z,96185.81
2019-04-25T13:16:47.573Z,96183.12
2019-04-25T13:19:23.965Z,96183.63
2019-04-25T13:21:52.168Z,96172.53
2019-04-25T13:24:23.613Z,96167.58
2019-04-25T13:27:03.961Z,96164.11
2019-04-25T13:29:45.361Z,96160.22
2019-04-25T13:32:27.927Z,96150.02
2019-04-25T13:35:00.975Z,96154.06
2019-04-25T13:37:34.095Z,96151.50
2019-04-25T13:40:06.373Z,96142.25
2019-04-25T13:42:40.693Z,96133.83
2019-04-25T13:45:14.310Z,96131.42
2019-04-25T13:47:45.753Z,96134.78
2019-04-25T13:50:17.919Z,96119.13
2019-04-25T13:52:49.177Z,96125.27
2019-04-25T13:55:21.321Z,96118.82
2019-04-25T13:57:54.670Z,96116.11
2019-04-25T14:00:27.791Z,96113.30
2019-04-25T14:03:03.029Z,96115.42
2019-04-25T14:05:35.298Z,96103.85
2019-04-25T14:08:07.029Z,96097.16
2019-04-25T14:10:39.089Z,96101.86
2019-04-25T14:13:11.104Z,96090.04
2019-04-25T14:15:47.910Z,96085.44
2019-04-25T14:18:53.556Z,96087.38
2019-04-25T14:21:26.125Z,96079.18
2019-04-25T14:23:58.727Z,96090.97
2019-04-25T14:26:31.290Z,96081.27
2019-04-25T14:29:04.249Z,96071.81
2019-04-25T14:31:45.460Z,96079.50
2019-04-25T14:34:09.985Z,96070.27
2019-04-25T14:36:41.658Z,96070.99
2019-04-25T14:39:15.137Z,96065.66
2019-04-25T14:41:49.785Z,96069.59
2019-04-25T14:44:22.281Z,96076.16
2019-04-25T14:46:55.051Z,96074.38
2019-04-25T14:49:26.998Z,96079.46
2019-04-25T14:51:58.574Z,96068.82
2019-04-25T14:54:36.982Z,96074.64
2019-04-25T14:57:16.915Z,96077.36
2019-04-25T14:59:48.596Z,96068.82
2019-04-25T15:02:22.638Z,96077.27
2019-04-25T15:04:53.958Z,96082.72
2019-04-25T15:07:25.413Z,96079.62
2019-04-25T15:09:56.859Z,96079.34
2019-04-25T15:12:29.350Z,96078.23
2019-04-25T15:15:00.782Z,96074.55
2019-04-25T15:17:43.909Z,96079.92
2019-04-25T15:20:06.990Z,96077.33
2019-04-25T15:22:38.961Z,96076.92
2019-04-25T15:25:10.781Z,96076.23
2019-04-25T15:27:42.194Z,96089.16
2019-04-25T15:30:18.857Z,96081.55
2019-04-25T15:32:50.391Z,96085.08
2019-04-25T15:35:24.642Z,96077.05
2019-04-25T15:38:05.066Z,96073.23
2019-04-25T15:40:42.058Z,96075.55
2019-04-25T15:43:36.410Z,96066.59
2019-04-25T15:46:16.406Z,96073.22
2019-04-25T15:48:48.217Z,96062.97
2019-04-25T15:51:19.600Z,96063.00
2019-04-25T15:53:50.924Z,96061.90
2019-04-25T15:56:22.374Z,96066.63
2019-04-25T15:58:54.175Z,96072.64
2019-04-25T16:01:26.497Z,96071.98
2019-04-25T16:03:58.211Z,96070.25
2019-04-25T16:06:30.055Z,96077.72
2019-04-25T16:09:01.460Z,96076.90
2019-04-25T16:11:35.103Z,96081.48
2019-04-25T16:14:06.665Z,96064.23
2019-04-25T16:16:38.435Z,96073.51
2019-04-25T16:19:10.006Z,96058.09
2019-04-25T16:21:42.235Z,96060.95
2019-04-25T16:24:13.733Z,96059.52
2019-04-25T16:26:45.101Z,96056.29
2019-04-25T16:29:16.376Z,96053.95
2019-04-25T16:31:47.813Z,96051.89
2019-04-25T16:34:19.150Z,96060.27
2019-04-25T16:36:50.585Z,96057.72
2019-04-25T16:39:24.122Z,96057.92
2019-04-25T16:41:55.619Z,96054.53
2019-04-25T16:44:27.641Z,96057.58
2019-04-25T16:47:00.079Z,96054.20
2019-04-25T16:49:32.558Z,96053.68
2019-04-25T16:52:05.754Z,96056.91
2019-04-25T16:54:38.080Z,96054.53
2019-04-25T16:57:09.540Z,96054.22
2019-04-25T16:59:40.798Z,96052.56
2019-04-25T17:02:12.325Z,96056.70
2019-04-25T17:04:43.899Z,96061.31
2019-04-25T17:07:15.754Z,96061.66
2019-04-25T17:09:47.365Z,96061.46
2019-04-25T17:12:19.720Z,96065.49
2019-04-25T17:15:09.962Z,96060.58
2019-04-25T17:18:04.423Z,96062.09
2019-04-25T17:20:40.611Z,96067.50
2019-04-25T17:23:12.982Z,96063.50
2019-04-25T17:25:44.395Z,96063.13
2019-04-25T17:28:17.422Z,96063.16
2019-04-25T17:30:52.572Z,96060.87
2019-04-25T17:33:35.683Z,96061.98
2019-04-25T17:36:15.556Z,96064.67
2019-04-25T17:38:54.457Z,96070.85
2019-04-25T17:41:26.151Z,96067.98
2019-04-25T17:43:57.519Z,96069.13
2019-04-25T17:46:28.736Z,96062.78
2019-04-25T17:49:00.027Z,96055.82
2019-04-25T17:51:32.263Z,96064.23
2019-04-25T17:54:05.220Z,96064.58
2019-04-25T17:56:36.649Z,96058.97
2019-04-25T17:59:09.143Z,96059.48
2019-04-25T18:01:40.745Z,96060.37
2019-04-25T18:04:12.405Z,96055.03
2019-04-25T18:06:44.384Z,96068.27
2019-04-25T18:09:15.867Z,96069.52
2019-04-25T18:11:47.666Z,96068.45
2019-04-25T18:14:19.009Z,96066.70
2019-04-25T18:16:52.413Z,96067.89
2019-04-25T18:19:29.808Z,96073.55
2019-04-25T18:22:12.215Z,96073.44
2019-04-25T18:25:05.937Z,96070.27
2019-04-25T18:27:56.185Z,96071.71
2019-04-25T18:30:27.957Z,96073.09
2019-04-25T18:33:11.916Z,96066.03
2019-04-25T18:35:44.604Z,96068.09
2019-04-25T18:38:23.459Z,96065.27
2019-04-25T18:41:02.195Z,96070.20
2019-04-25T18:43:47.127Z,96072.00
2019-04-25T18:46:40.503Z,96077.91
2019-04-25T18:49:12.392Z,96074.56
2019-04-25T18:51:55.103Z,96073.60
2019-04-25T18:54:30.619Z,96082.18
2019-04-25T18:57:12.375Z,96083.84
2019-04-25T19:00:05.979Z,96090.42
2019-04-25T19:03:00.787Z,96092.86
2019-04-25T19:05:57.276Z,96090.09
2019-04-25T19:08:28.992Z,96086.34
2019-04-25T19:11:00.823Z,96094.27
2019-04-25T19:13:33.071Z,96090.47
2019-04-25T19:16:04.581Z,96093.00
2019-04-25T19:18:36.057Z,96095.14
2019-04-25T19:21:08.279Z,96094.56
2019-04-25T19:23:41.743Z,96090.30
2019-04-25T19:26:14.260Z,96093.72
2019-04-25T19:28:46.861Z,96101.23
2019-04-25T19:31:18.371Z,96102.70
2019-04-25T19:33:49.930Z,96109.07
2019-04-25T19:36:21.528Z,96110.70
2019-04-25T19:38:53.537Z,96114.52
2019-04-25T19:41:31.326Z,96109.50
2019-04-25T19:44:08.205Z,96107.43
2019-04-25T19:46:44.906Z,96115.59
2019-04-25T19:49:16.682Z,96119.06
2019-04-25T19:51:48.051Z,96123.89
2019-04-25T19:54:19.508Z,96125.98
2019-04-25T19:56:51.770Z,96126.46
2019-04-25T19:59:23.614Z,96123.32
2019-04-25T20:01:57.073Z,96134.17
2019-04-25T20:04:37.958Z,96129.51
2019-04-25T20:07:21.273Z,96135.38
2019-04-25T20:10:21.073Z,96130.25
2019-04-25T20:12:53.529Z,96139.98
2019-04-25T20:15:33.405Z,96134.78
2019-04-25T20:18:05.989Z,96140.12
2019-04-25T20:20:37.509Z,96137.81
2019-04-25T20:23:08.825Z,96143.18
2019-04-25T20:25:40.291Z,96140.58
2019-04-25T20:28:11.824Z,96138.47
2019-04-25T20:30:44.537Z,96146.17
2019-04-25T20:33:16.988Z,96137.59
2019-04-25T20:35:49.387Z,96146.52
2019-04-25T20:38:20.722Z,96149.68
2019-04-25T20:40:52.674Z,96150.84
2019-04-25T20:43:24.307Z,96160.70
2019-04-25T20:45:56.526Z,96161.42
2019-04-25T20:48:28.051Z,96160.24
2019-04-25T20:50:59.801Z,96171.66
2019-04-25T20:53:31.479Z,96174.22
2019-04-25T20:56:03.146Z,96176.09
2019-04-25T20:58:53.516Z,96171.56
2019-04-25T21:01:44.585Z,96171.69
2019-04-25T21:04:34.834Z,96176.32
2019-04-25T21:07:13.169Z,96170.08
2019-04-25T21:09:44.536Z,96171.47
2019-04-25T21:12:15.976Z,96170.33
2019-04-25T21:15:06.623Z,96170.12
2019-04-25T21:18:06.264Z,96173.90
2019-04-25T21:20:37.800Z,96166.17
2019-04-25T21:23:09.086Z,96168.38
2019-04-25T21:25:40.457Z,96170.48
2019-04-25T21:28:13.483Z,96169.56
2019-04-25T21:30:44.924Z,96170.70
2019-04-25T21:33:16.549Z,96179.39
2019-04-25T21:35:48.099Z,96181.51
2019-04-25T21:38:20.060Z,96177.24
2019-04-25T21:41:10.188Z,96177.24
2019-04-25T21:43:46.983Z,96174.66
2019-04-25T21:46:19.703Z,96176.49
2019-04-25T21:48:53.407Z,96175.55
2019-04-25T21:51:34.264Z,96183.13
2019-04-25T21:54:05.907Z,96173.02
2019-04-25T21:56:37.615Z,96175.98
2019-04-25T21:59:09.270Z,96178.58
2019-04-25T22:01:41.947Z,96183.81
2019-04-25T22:04:13.580Z,96194.11
2019-04-25T22:06:45.452Z,96186.55
2019-04-25T22:09:19.381Z,96178.94
2019-04-25T22:11:51.477Z,96187.55
2019-04-25T22:14:23.438Z,96186.57
2019-04-25T22:16:55.478Z,96190.55
2019-04-25T22:19:28.054Z,96191.88
2019-04-25T22:22:00.596Z,96195.18
2019-04-25T22:24:32.129Z,96194.61
2019-04-25T22:27:06.174Z,96190.42
2019-04-25T22:29:42.020Z,96189.16
2019-04-25T22:32:27.870Z,96199.37
2019-04-25T22:35:07.971Z,96201.06
2019-04-25T22:37:39.510Z,96206.42
2019-04-25T22:40:11.635Z,96197.05
2019-04-25T22:42:43.427Z,96195.06
2019-04-25T22:45:15.195Z,96189.87
2019-04-25T22:47:46.905Z,96179.56
2019-04-25T22:50:18.466Z,96183.58
2019-04-25T22:52:50.191Z,96184.41
2019-04-25T22:55:21.716Z,96188.73
2019-04-25T22:57:53.014Z,96186.83
2019-04-25T23:00:28.849Z,96190.00
2019-04-25T23:03:05.892Z,96197.82
2019-04-25T23:05:42.834Z,96204.45
2019-04-25T23:08:14.550Z,96204.87
2019-04-25T23:10:46.247Z,96209.66
2019-04-25T23:13:19.246Z,96211.55
2019-04-25T23:15:50.551Z,96211.09
2019-04-25T23:18:22.394Z,96217.34
2019-04-25T23:20:53.838Z,96208.83
2019-04-25T23:23:25.465Z,96212.34
2019-04-25T23:26:08.980Z,96205.05
2019-04-25T23:28:42.592Z,96198.79
2019-04-25T23:31:18.739Z,96205.91
2019-04-25T23:33:51.127Z,96208.09
2019-04-25T23:36:22.841Z,96196.72
2019-04-25T23:38:54.364Z,96181.86
2019-04-25T23:41:26.211Z,96173.94
2019-04-25T23:43:57.579Z,96187.49
2019-04-25T23:46:29.545Z,96198.81
2019-04-25T23:49:00.944Z,96198.69
2019-04-25T23:51:32.638Z,96199.77
2019-04-25T23:54:05.304Z,96209.98
2019-04-25T23:56:36.961Z,96211.95
2019-04-25T23:59:11.489Z,96215.65
